Time;durP1;ratioP1;P1;durP2;ratioP2;P2;SDS_P1;SDS_P2;PMS_P1;PMS_P2;Temp;Humidity;BMP_temperature;BMP_pressure;BME280_temperature;BME280_humidity;BME280_pressure;Samples;Min_cycle;Max_cycle;Signal;HPM_P1;HPM_P2
2021/12/21 19:33:20;;;;;;;7.53;6.45;;;;;;;;;;3849483;37;20090;-71
2021/12/21 19:35:47;;;;;;;7.80;7.00;;;;;;;;;;4402857;32;20524;-72
2021/12/21 19:38:15;;;;;;;8.00;6.15;;;;;;;;;;4404365;32;20093;-72
2021/12/21 19:40:41;;;;;;;7.57;6.47;;;;;;;;;;4402899;32;20617;-71
2021/12/21 19:43:08;;;;;;;8.23;6.55;;;;;;;;;;4402935;32;20507;-72
2021/12/21 19:45:36;;;;;;;7.35;6.32;;;;;;;;;;4402904;32;20128;-72
2021/12/21 19:48:03;;;;;;;7.05;6.35;;;;;;;;;;4403094;32;20148;-72
2021/12/21 19:50:29;;;;;;;6.93;6.00;;;;;;;;;;4404505;32;20128;-71
2021/12/21 19:52:56;;;;;;;5.93;5.32;;;;;;;;;;4402852;32;20198;-72
2021/12/21 19:55:23;;;;;;;5.87;5.37;;;;;;;;;;4390248;32;20127;-72
2021/12/21 19:57:50;;;;;;;6.55;5.90;;;;;;;;;;4404391;32;20116;-72
2021/12/21 20:00:19;;;;;;;6.25;5.65;;;;;;;;;;4390121;32;20087;-72
2021/12/21 20:02:45;;;;;;;5.87;5.37;;;;;;;;;;4402572;32;20225;-72
2021/12/21 20:05:12;;;;;;;6.00;5.40;;;;;;;;;;4404394;32;20535;-72
2021/12/21 20:07:38;;;;;;;5.93;5.43;;;;;;;;;;4402670;32;20120;-72
2021/12/21 20:10:07;;;;;;;6.12;5.47;;;;;;;;;;4402500;32;20125;-72
2021/12/21 20:12:33;;;;;;;6.10;5.53;;;;;;;;;;4390260;32;20125;-72
2021/12/21 20:15:00;;;;;;;6.35;5.75;;;;;;;;;;4390467;32;20109;-72
2021/12/21 20:17:26;;;;;;;6.85;5.97;;;;;;;;;;4402661;32;20105;-72
2021/12/21 20:19:53;;;;;;;6.53;5.93;;;;;;;;;;4390150;32;20117;-72
2021/12/21 20:22:20;;;;;;;7.35;6.65;;;;;;;;;;4403687;32;20105;-72
2021/12/21 20:24:48;;;;;;;7.43;6.53;;;;;;;;;;4402436;32;20153;-72
2021/12/21 20:27:16;;;;;;;8.55;6.10;;;;;;;;;;4402509;32;20093;-72
2021/12/21 20:29:43;;;;;;;8.77;6.12;;;;;;;;;;4402471;32;20116;-72
2021/12/21 20:32:09;;;;;;;6.55;5.85;;;;;;;;;;4403653;32;20090;-72
2021/12/21 20:34:35;;;;;;;7.82;5.97;;;;;;;;;;4389924;32;20097;-72
2021/12/21 20:37:04;;;;;;;7.07;5.62;;;;;;;;;;4377633;32;20136;-72
2021/12/21 20:39:31;;;;;;;6.30;5.43;;;;;;;;;;4402669;32;20117;-72
2021/12/21 20:41:57;;;;;;;6.65;5.45;;;;;;;;;;4402399;32;20081;-71
2021/12/21 20:44:23;;;;;;;6.80;5.78;;;;;;;;;;4393583;32;20109;-72
2021/12/21 20:46:50;;;;;;;7.40;6.03;;;;;;;;;;4367063;32;20197;-71
2021/12/21 20:49:17;;;;;;;6.70;5.15;;;;;;;;;;4367300;32;20185;-71
2021/12/21 20:51:43;;;;;;;6.15;5.12;;;;;;;;;;4393859;32;20198;-71
2021/12/21 20:54:09;;;;;;;6.82;6.12;;;;;;;;;;4392260;32;20098;-71
2021/12/21 20:56:35;;;;;;;8.52;7.10;;;;;;;;;;4392464;32;20178;-71
2021/12/21 20:59:03;;;;;;;8.77;5.45;;;;;;;;;;4393639;32;20171;-71
2021/12/21 21:01:29;;;;;;;6.57;5.57;;;;;;;;;;4392301;32;20125;-71
2021/12/21 21:03:55;;;;;;;6.57;5.15;;;;;;;;;;4393664;32;20089;-73
2021/12/21 21:06:21;;;;;;;5.95;5.40;;;;;;;;;;4379514;32;20108;-70
2021/12/21 21:08:47;;;;;;;5.25;4.68;;;;;;;;;;4393658;32;20178;-70
2021/12/21 21:11:14;;;;;;;6.53;5.32;;;;;;;;;;4393185;32;20177;-70
2021/12/21 21:13:40;;;;;;;7.00;5.45;;;;;;;;;;4392105;32;20385;-70
2021/12/21 21:16:08;;;;;;;6.12;5.10;;;;;;;;;;4391985;32;20117;-70
2021/12/21 21:18:35;;;;;;;8.05;5.60;;;;;;;;;;4391995;32;20499;-71
2021/12/21 21:21:01;;;;;;;7.85;5.60;;;;;;;;;;4392134;32;20101;-71
2021/12/21 21:23:28;;;;;;;6.62;5.72;;;;;;;;;;4391901;32;20468;-71
2021/12/21 21:25:54;;;;;;;6.45;5.75;;;;;;;;;;4392211;32;20186;-71
2021/12/21 21:28:20;;;;;;;8.27;5.97;;;;;;;;;;4391893;32;20102;-71
2021/12/21 21:30:47;;;;;;;5.90;5.30;;;;;;;;;;4393291;32;20209;-71
2021/12/21 21:33:13;;;;;;;8.55;5.95;;;;;;;;;;4379333;32;20101;-71
2021/12/21 21:35:39;;;;;;;6.95;6.20;;;;;;;;;;4392166;32;20442;-71
2021/12/21 21:38:06;;;;;;;6.57;5.93;;;;;;;;;;4392003;32;20203;-71
2021/12/21 21:40:32;;;;;;;6.68;5.80;;;;;;;;;;4392120;32;20105;-71
2021/12/21 21:42:57;;;;;;;8.65;5.70;;;;;;;;;;4391845;32;20100;-71
2021/12/21 21:45:25;;;;;;;7.75;5.80;;;;;;;;;;4393288;32;20109;-71
2021/12/21 21:47:50;;;;;;;8.77;5.93;;;;;;;;;;4393231;32;20132;-71
2021/12/21 21:50:17;;;;;;;8.23;5.87;;;;;;;;;;4393387;32;20133;-70
2021/12/21 21:52:43;;;;;;;7.75;5.43;;;;;;;;;;4393359;32;20209;-71
2021/12/21 21:55:10;;;;;;;7.87;5.82;;;;;;;;;;4390986;32;20137;-71
2021/12/21 21:57:36;;;;;;;7.93;6.03;;;;;;;;;;4392912;32;20207;-70
2021/12/21 22:00:05;;;;;;;6.43;5.82;;;;;;;;;;4393138;32;20125;-69
2021/12/21 22:02:31;;;;;;;6.60;5.90;;;;;;;;;;4391875;32;20713;-71
2021/12/21 22:04:57;;;;;;;9.57;6.80;;;;;;;;;;4391877;32;20090;-71
2021/12/21 22:07:23;;;;;;;8.50;6.75;;;;;;;;;;4393076;32;20197;-71
2021/12/21 22:09:49;;;;;;;5.82;5.25;;;;;;;;;;4393229;32;20493;-71
2021/12/21 22:12:15;;;;;;;6.20;5.10;;;;;;;;;;4392797;32;20105;-71
2021/12/21 22:14:42;;;;;;;5.85;5.25;;;;;;;;;;4392866;32;20190;-71
2021/12/21 22:17:09;;;;;;;5.57;5.00;;;;;;;;;;4393014;32;20617;-71
2021/12/21 22:19:35;;;;;;;5.60;5.00;;;;;;;;;;4392829;32;20194;-71
2021/12/21 22:22:01;;;;;;;6.50;5.15;;;;;;;;;;4391413;32;20126;-71
2021/12/21 22:24:27;;;;;;;5.32;4.80;;;;;;;;;;4379109;32;20127;-72
2021/12/21 22:26:53;;;;;;;5.85;5.00;;;;;;;;;;4392849;32;20105;-71
2021/12/21 22:29:19;;;;;;;5.57;4.87;;;;;;;;;;4379012;32;20121;-71
2021/12/21 22:31:45;;;;;;;5.07;4.57;;;;;;;;;;4391149;32;20575;-71
2021/12/21 22:34:13;;;;;;;5.28;4.78;;;;;;;;;;4392763;32;20097;-71
2021/12/21 22:36:41;;;;;;;5.20;4.70;;;;;;;;;;4378873;32;20530;-71
2021/12/21 22:39:08;;;;;;;5.68;4.70;;;;;;;;;;4378759;32;20098;-71
2021/12/21 22:41:34;;;;;;;5.22;4.50;;;;;;;;;;4391353;32;20183;-71
2021/12/21 22:44:00;;;;;;;4.85;4.35;;;;;;;;;;4392661;32;20142;-71
2021/12/21 22:46:26;;;;;;;5.07;4.40;;;;;;;;;;4391284;32;20490;-71
2021/12/21 22:48:53;;;;;;;5.70;4.18;;;;;;;;;;4391170;32;20101;-71
2021/12/21 22:51:19;;;;;;;4.93;4.28;;;;;;;;;;4392370;32;20132;-71
2021/12/21 22:53:45;;;;;;;5.22;4.72;;;;;;;;;;4392802;32;20105;-71
2021/12/21 22:56:11;;;;;;;8.05;4.68;;;;;;;;;;4392629;32;20192;-71
2021/12/21 22:58:39;;;;;;;5.40;4.87;;;;;;;;;;4391278;32;20106;-71
2021/12/21 23:01:08;;;;;;;5.20;4.70;;;;;;;;;;4391212;32;20088;-71
2021/12/21 23:03:34;;;;;;;4.80;4.30;;;;;;;;;;4390879;32;20098;-72
2021/12/21 23:06:01;;;;;;;5.53;4.72;;;;;;;;;;4392096;32;20112;-71
2021/12/21 23:08:27;;;;;;;5.78;4.72;;;;;;;;;;4353724;32;20213;-70
2021/12/21 23:10:53;;;;;;;5.55;4.70;;;;;;;;;;4390822;32;20181;-71
2021/12/21 23:13:19;;;;;;;5.00;4.50;;;;;;;;;;4378307;32;20426;-71
2021/12/21 23:15:50;;;;;;;6.55;5.00;;;;;;;;;;4390868;32;20205;-71
2021/12/21 23:18:17;;;;;;;5.25;4.70;;;;;;;;;;4392370;32;20101;-70
2021/12/21 23:20:43;;;;;;;6.03;4.47;;;;;;;;;;4390748;32;20218;-70
2021/12/21 23:23:09;;;;;;;4.72;4.30;;;;;;;;;;4390903;32;20117;-71
2021/12/21 23:25:35;;;;;;;4.97;4.57;;;;;;;;;;4366056;32;20128;-71
2021/12/21 23:28:01;;;;;;;11.43;5.30;;;;;;;;;;4390668;32;20215;-71
2021/12/21 23:30:27;;;;;;;5.78;5.18;;;;;;;;;;4378388;32;20105;-69
2021/12/21 23:32:54;;;;;;;5.90;4.90;;;;;;;;;;4390458;32;20105;-71
2021/12/21 23:35:20;;;;;;;5.15;4.65;;;;;;;;;;4392132;32;20102;-70
2021/12/21 23:37:46;;;;;;;4.03;3.62;;;;;;;;;;4390707;32;20195;-71
2021/12/21 23:40:16;;;;;;;5.60;4.95;;;;;;;;;;4377910;32;20112;-72
2021/12/21 23:42:43;;;;;;;4.45;3.97;;;;;;;;;;4390596;32;20165;-72
2021/12/21 23:45:09;;;;;;;4.85;3.90;;;;;;;;;;4390759;32;20110;-71
2021/12/21 23:47:35;;;;;;;5.55;4.10;;;;;;;;;;4390678;32;20117;-71
